Time;durP1;ratioP1;P1;durP2;ratioP2;P2;SDS_P1;SDS_P2;PMS_P1;PMS_P2;Temp;Humidity;BMP_temperature;BMP_pressure;BME280_temperature;BME280_humidity;BME280_pressure;Samples;Min_cycle;Max_cycle;Signal;HPM_P1;HPM_P2
2022/03/31 00:01:26;;;;;;;21.57;15.77;;;6.40;99.90;;;;;;5029844;28;20590;-72
2022/03/31 00:04:11;;;;;;;24.53;16.10;;;6.50;99.90;;;;;;5029758;28;20460;-72
2022/03/31 00:06:57;;;;;;;20.03;15.43;;;6.50;99.90;;;;;;5030600;28;20487;-72
2022/03/31 00:09:43;;;;;;;25.90;16.97;;;6.60;99.90;;;;;;5028438;28;20947;-72
2022/03/31 00:12:31;;;;;;;21.30;15.97;;;6.80;99.90;;;;;;5025813;28;20453;-72
2022/03/31 00:15:17;;;;;;;26.00;16.73;;;6.80;99.90;;;;;;5033406;28;20822;-72
2022/03/31 00:18:04;;;;;;;26.57;14.97;;;6.90;99.90;;;;;;5035234;28;20439;-73
2022/03/31 00:20:50;;;;;;;22.17;14.90;;;7.10;99.90;;;;;;5032726;28;20833;-72
2022/03/31 00:23:36;;;;;;;19.83;14.80;;;7.10;99.90;;;;;;5031871;28;20487;-72
2022/03/31 00:26:22;;;;;;;21.97;15.17;;;7.10;99.90;;;;;;5032273;28;20431;-72
2022/03/31 00:29:09;;;;;;;20.30;13.70;;;7.20;99.90;;;;;;5032555;28;20455;-73
2022/03/31 00:31:55;;;;;;;22.90;15.60;;;7.20;99.90;;;;;;5026324;28;20505;-71
2022/03/31 00:34:41;;;;;;;21.27;14.73;;;7.20;99.90;;;;;;5032736;28;20423;-72
2022/03/31 00:37:27;;;;;;;21.50;16.70;;;7.20;99.90;;;;;;5034587;28;20471;-72
2022/03/31 00:40:15;;;;;;;23.07;14.87;;;7.30;99.90;;;;;;5034080;28;20509;-72
2022/03/31 00:43:00;;;;;;;17.77;13.70;;;7.30;99.90;;;;;;5027167;28;20464;-72
2022/03/31 00:45:48;;;;;;;20.20;15.67;;;7.30;99.90;;;;;;5029211;28;20976;-72
2022/03/31 00:48:33;;;;;;;19.80;14.53;;;7.10;99.90;;;;;;5033385;28;20479;-72
2022/03/31 00:51:20;;;;;;;26.27;15.70;;;7.10;99.90;;;;;;5031698;28;20451;-71
2022/03/31 00:54:06;;;;;;;21.23;15.20;;;7.00;99.90;;;;;;5030709;28;20444;-73
2022/03/31 00:56:53;;;;;;;23.53;15.97;;;7.00;99.90;;;;;;5034005;28;20447;-73
2022/03/31 00:59:39;;;;;;;22.17;15.80;;;6.90;99.90;;;;;;5030092;28;20512;-72
2022/03/31 01:02:31;;;;;;;22.10;15.57;;;7.00;99.90;;;;;;5027666;28;20423;-72
2022/03/31 01:05:18;;;;;;;27.77;18.90;;;7.10;99.90;;;;;;5036451;28;20458;-72
2022/03/31 01:08:03;;;;;;;21.37;16.30;;;7.00;99.90;;;;;;5030281;28;20464;-72
2022/03/31 01:10:52;;;;;;;23.70;16.30;;;6.90;99.90;;;;;;5029166;28;20452;-72
2022/03/31 01:13:38;;;;;;;23.30;16.43;;;6.90;99.90;;;;;;5033246;28;20424;-72
2022/03/31 01:16:23;;;;;;;31.17;18.67;;;6.90;99.90;;;;;;5033659;28;20407;-72
2022/03/31 01:19:12;;;;;;;26.57;17.90;;;7.00;99.90;;;;;;5032475;28;20646;-72
2022/03/31 01:21:58;;;;;;;26.10;18.87;;;7.00;99.90;;;;;;5025421;28;20523;-72
2022/03/31 01:24:45;;;;;;;24.10;16.80;;;7.00;99.90;;;;;;5029694;28;20536;-72
2022/03/31 01:27:31;;;;;;;26.90;17.00;;;6.90;99.90;;;;;;5031944;28;20887;-71
2022/03/31 01:30:18;;;;;;;22.87;16.10;;;6.70;99.90;;;;;;5033319;28;20552;-70
2022/03/31 01:33:04;;;;;;;27.10;16.43;;;6.60;99.90;;;;;;5032105;28;20418;-72
2022/03/31 01:35:50;;;;;;;25.13;17.90;;;6.40;99.90;;;;;;5031273;28;20419;-71
2022/03/31 01:38:36;;;;;;;23.60;16.43;;;6.50;99.90;;;;;;5032061;28;20434;-72
2022/03/31 01:41:23;;;;;;;23.33;16.40;;;6.40;99.90;;;;;;5028461;28;20421;-71
2022/03/31 01:44:09;;;;;;;25.20;17.73;;;6.20;99.90;;;;;;5029050;28;20453;-72
2022/03/31 01:46:55;;;;;;;24.83;16.63;;;6.30;99.90;;;;;;5031795;28;20550;-72
2022/03/31 01:49:40;;;;;;;24.10;16.07;;;6.30;99.90;;;;;;5032688;28;22802;-72
2022/03/31 01:52:28;;;;;;;22.17;15.23;;;6.20;99.90;;;;;;5030231;28;20414;-71
2022/03/31 01:55:13;;;;;;;22.50;15.63;;;6.10;99.90;;;;;;5030779;28;20443;-71
2022/03/31 01:58:00;;;;;;;26.67;17.23;;;5.80;99.90;;;;;;5028915;28;20438;-72
2022/03/31 02:00:46;;;;;;;26.90;18.60;;;5.80;99.90;;;;;;5029313;28;20421;-72
2022/03/31 02:03:33;;;;;;;24.47;16.00;;;5.70;99.90;;;;;;5034843;28;20448;-71
2022/03/31 02:06:18;;;;;;;28.50;17.60;;;5.60;99.90;;;;;;5028738;28;20530;-72
2022/03/31 02:09:04;;;;;;;25.60;17.00;;;5.80;99.90;;;;;;5029892;28;20519;-72
2022/03/31 02:11:49;;;;;;;21.63;15.30;;;5.80;99.90;;;;;;5025196;28;20549;-72
2022/03/31 02:14:37;;;;;;;22.57;16.30;;;5.70;99.90;;;;;;5029585;28;20440;-72
2022/03/31 02:17:23;;;;;;;25.30;16.30;;;5.60;99.90;;;;;;5033009;28;20462;-72
2022/03/31 02:20:10;;;;;;;28.33;17.30;;;5.50;99.90;;;;;;5029704;28;20410;-70
2022/03/31 02:22:55;;;;;;;25.63;16.00;;;5.50;99.90;;;;;;5034390;28;20470;-72
2022/03/31 02:25:41;;;;;;;24.10;17.20;;;5.60;99.90;;;;;;5033967;28;20513;-72
2022/03/31 02:28:27;;;;;;;25.73;16.40;;;5.60;99.90;;;;;;5030645;28;20529;-71
2022/03/31 02:31:13;;;;;;;26.50;16.13;;;5.60;99.90;;;;;;5025820;28;20426;-72
2022/03/31 02:33:59;;;;;;;23.33;16.23;;;5.70;99.90;;;;;;5028923;28;20514;-72
2022/03/31 02:36:46;;;;;;;25.60;16.17;;;5.70;99.90;;;;;;5033963;28;20494;-71
2022/03/31 02:39:32;;;;;;;21.30;15.83;;;5.70;99.90;;;;;;5028847;28;21106;-70
2022/03/31 02:42:18;;;;;;;25.00;17.20;;;5.90;99.90;;;;;;5027538;28;20452;-72
2022/03/31 02:45:04;;;;;;;22.93;17.43;;;6.10;99.90;;;;;;5029795;28;20474;-71
2022/03/31 02:47:51;;;;;;;23.23;16.30;;;6.10;99.90;;;;;;5036525;28;20472;-71
2022/03/31 02:50:37;;;;;;;23.60;17.37;;;6.20;99.90;;;;;;5027258;28;20456;-72
2022/03/31 02:56:26;;;;;;;25.77;16.60;;;6.20;99.90;;;;;;5028016;28;21010;-72
2022/03/31 02:59:12;;;;;;;25.77;17.20;;;6.30;99.90;;;;;;5028438;28;20997;-71
2022/03/31 03:01:58;;;;;;;22.40;15.07;;;6.40;99.90;;;;;;5029022;28;20461;-71
2022/03/31 03:04:45;;;;;;;23.90;16.23;;;6.50;99.90;;;;;;5029045;28;20464;-71
2022/03/31 03:07:31;;;;;;;24.97;17.27;;;6.40;99.90;;;;;;5030154;28;20467;-72
2022/03/31 03:10:17;;;;;;;24.43;17.20;;;6.30;99.90;;;;;;5024256;28;20507;-72
2022/03/31 03:13:03;;;;;;;23.47;17.50;;;6.00;99.90;;;;;;5028444;28;20927;-71
2022/03/31 03:15:49;;;;;;;27.03;17.70;;;6.00;99.90;;;;;;5030727;28;20437;-72
2022/03/31 03:18:35;;;;;;;25.87;18.53;;;6.00;99.90;;;;;;5027969;28;20442;-71
2022/03/31 03:21:22;;;;;;;24.43;17.30;;;6.00;99.90;;;;;;5032384;28;20481;-71
2022/03/31 03:24:10;;;;;;;25.77;18.40;;;6.00;99.90;;;;;;5035123;28;20476;-72
2022/03/31 03:26:56;;;;;;;23.43;17.33;;;6.00;99.90;;;;;;5032924;28;20597;-72
2022/03/31 03:29:46;;;;;;;27.00;16.67;;;6.00;99.90;;;;;;5030035;28;20476;-72
2022/03/31 03:32:32;;;;;;;23.07;17.17;;;5.90;99.90;;;;;;5031551;28;20435;-73
2022/03/31 03:35:17;;;;;;;24.00;17.00;;;5.90;99.90;;;;;;5035831;28;20781;-72
2022/03/31 03:38:04;;;;;;;25.73;18.00;;;5.90;99.90;;;;;;5031138;28;20471;-72
2022/03/31 03:40:50;;;;;;;31.00;19.17;;;6.00;99.90;;;;;;5027295;28;20426;-72
2022/03/31 03:43:35;;;;;;;26.00;16.73;;;6.10;99.90;;;;;;5030296;28;20427;-72
2022/03/31 03:46:23;;;;;;;27.70;18.00;;;6.00;99.90;;;;;;5032447;28;21011;-72
2022/03/31 03:49:08;;;;;;;23.23;16.53;;;6.20;99.90;;;;;;5026440;28;20817;-72
2022/03/31 03:51:55;;;;;;;25.63;18.13;;;6.10;99.90;;;;;;5034803;28;20410;-72
2022/03/31 03:54:42;;;;;;;24.43;17.40;;;6.00;99.90;;;;;;5035333;28;20456;-72
2022/03/31 03:57:27;;;;;;;27.17;17.17;;;6.00;99.90;;;;;;5035549;28;20598;-72
2022/03/31 04:00:14;;;;;;;30.70;17.57;;;6.00;99.90;;;;;;5027884;28;20929;-73
2022/03/31 04:02:59;;;;;;;30.70;19.07;;;5.90;99.90;;;;;;5033709;28;20422;-73
2022/03/31 04:05:45;;;;;;;28.83;19.40;;;5.80;99.90;;;;;;5032532;28;20476;-73
2022/03/31 04:08:31;;;;;;;25.93;17.77;;;6.00;99.90;;;;;;5029365;28;20455;-72
2022/03/31 04:11:18;;;;;;;27.30;17.30;;;6.10;99.90;;;;;;5033329;28;20451;-72
2022/03/31 04:14:04;;;;;;;21.13;14.87;;;6.20;99.90;;;;;;5036544;28;20472;-72
2022/03/31 04:16:49;;;;;;;25.77;16.33;;;6.30;99.90;;;;;;5033574;28;20418;-72
2022/03/31 04:19:35;;;;;;;25.33;15.87;;;6.30;99.90;;;;;;5030189;28;20458;-72
2022/03/31 04:22:21;;;;;;;25.43;17.50;;;6.40;99.90;;;;;;5036795;28;20407;-72
2022/03/31 04:25:09;;;;;;;37.73;18.63;;;6.20;99.90;;;;;;5034599;28;20413;-72
2022/03/31 04:27:56;;;;;;;28.90;18.07;;;6.00;99.90;;;;;;5032989;28;20481;-72
2022/03/31 04:30:42;;;;;;;30.20;16.70;;;5.90;99.90;;;;;;5029183;28;20444;-72
2022/03/31 04:33:28;;;;;;;26.13;18.10;;;5.80;99.90;;;;;;5034708;28;20411;-72
2022/03/31 04:36:15;;;;;;;23.33;16.67;;;5.80;99.90;;;;;;5030576;28;20436;-72
2022/03/31 04:39:01;;;;;;;27.73;19.10;;;5.80;99.90;;;;;;5028131;28;20472;-72
2022/03/31 04:41:46;;;;;;;25.43;17.80;;;5.80;99.90;;;;;;5032625;28;20426;-72
2022/03/31 04:44:33;;;;;;;28.60;17.40;;;5.70;99.90;;;;;;5033393;28;20464;-72
2022/03/31 04:47:19;;;;;;;25.70;18.00;;;5.80;99.90;;;;;;5028892;28;20521;-72
2022/03/31 04:50:05;;;;;;;25.60;17.90;;;5.80;99.90;;;;;;5033237;28;20439;-73
2022/03/31 04:52:51;;;;;;;24.03;16.70;;;5.70;99.90;;;;;;5033680;28;20542;-72
2022/03/31 04:55:37;;;;;;;55.93;36.30;;;5.60;99.90;;;;;;5033967;28;20933;-72
2022/03/31 04:58:22;;;;;;;71.57;42.50;;;5.60;99.90;;;;;;5029275;28;20492;-72
2022/03/31 05:01:10;;;;;;;91.67;54.10;;;5.80;99.90;;;;;;5034458;28;20430;-72
2022/03/31 05:03:56;;;;;;;74.47;41.37;;;5.80;99.90;;;;;;5031056;28;20975;-72
2022/03/31 05:06:42;;;;;;;59.23;33.50;;;5.70;99.90;;;;;;5031128;28;20481;-73
2022/03/31 05:09:27;;;;;;;55.50;34.17;;;5.60;99.90;;;;;;5027142;28;21084;-72
2022/03/31 05:12:13;;;;;;;41.73;27.70;;;5.50;99.90;;;;;;5032942;28;22574;-72
2022/03/31 05:14:59;;;;;;;35.53;22.43;;;5.50;99.90;;;;;;5027911;28;20527;-72
2022/03/31 05:17:46;;;;;;;28.20;21.27;;;5.50;99.90;;;;;;5027365;28;20479;-72
2022/03/31 05:20:32;;;;;;;59.77;31.87;;;5.40;99.90;;;;;;5031975;28;20440;-72
2022/03/31 05:23:18;;;;;;;31.60;21.40;;;5.30;99.90;;;;;;5032341;28;20413;-73
2022/03/31 05:26:03;;;;;;;32.40;20.58;;;5.40;99.90;;;;;;5032052;28;20561;-72
2022/03/31 05:28:49;;;;;;;33.97;23.80;;;5.30;99.90;;;;;;5027545;28;20719;-72
2022/03/31 05:31:35;;;;;;;38.10;24.07;;;5.20;99.90;;;;;;5031759;28;20437;-72
2022/03/31 05:34:22;;;;;;;30.03;21.10;;;5.30;99.90;;;;;;5033266;28;20476;-72
2022/03/31 05:37:08;;;;;;;28.10;19.07;;;5.40;99.90;;;;;;5027628;28;20973;-72
2022/03/31 05:39:53;;;;;;;28.47;19.73;;;5.50;99.90;;;;;;5032004;28;20515;-72
2022/03/31 05:42:40;;;;;;;31.80;19.27;;;5.60;99.90;;;;;;5029999;28;20443;-72
2022/03/31 05:45:26;;;;;;;30.60;18.87;;;5.80;99.90;;;;;;5032694;28;20240;-72
2022/03/31 05:48:11;;;;;;;26.97;18.03;;;5.90;99.90;;;;;;5027578;28;20848;-72
2022/03/31 05:50:58;;;;;;;25.80;17.30;;;6.10;99.90;;;;;;5037656;28;20481;-72
2022/03/31 05:53:44;;;;;;;28.47;17.57;;;6.10;99.90;;;;;;5038020;28;20424;-72
2022/03/31 05:56:30;;;;;;;24.87;17.53;;;6.20;99.90;;;;;;5028398;28;20423;-72
2022/03/31 05:59:16;;;;;;;25.37;18.00;;;6.30;99.90;;;;;;5028771;28;20436;-72
2022/03/31 06:02:02;;;;;;;26.47;17.37;;;6.40;99.90;;;;;;5031243;28;20415;-73
2022/03/31 06:04:47;;;;;;;24.60;16.67;;;6.40;99.90;;;;;;5033211;28;20423;-72
2022/03/31 06:07:35;;;;;;;24.00;18.10;;;6.50;99.90;;;;;;5026889;28;20513;-72
2022/03/31 06:10:21;;;;;;;26.93;18.90;;;6.60;99.90;;;;;;5030878;28;20430;-72
2022/03/31 06:13:07;;;;;;;27.80;17.90;;;6.70;99.90;;;;;;5030509;28;20411;-72
2022/03/31 06:15:52;;;;;;;25.27;17.37;;;6.70;99.90;;;;;;5027997;28;20451;-72
2022/03/31 06:18:38;;;;;;;26.77;17.30;;;6.80;99.90;;;;;;5034244;28;21009;-73
2022/03/31 06:21:24;;;;;;;23.53;16.80;;;6.90;99.90;;;;;;5031635;28;20422;-72
2022/03/31 06:24:11;;;;;;;20.37;15.63;;;7.00;99.90;;;;;;5031139;28;21017;-72
2022/03/31 06:26:57;;;;;;;22.63;16.17;;;7.10;99.90;;;;;;5024818;28;20555;-72
2022/03/31 06:29:45;;;;;;;24.43;16.33;;;7.00;99.90;;;;;;5030823;28;20427;-72
2022/03/31 06:32:30;;;;;;;24.97;17.13;;;7.10;99.90;;;;;;5030828;28;20407;-72
2022/03/31 06:35:16;;;;;;;18.80;14.37;;;7.10;99.90;;;;;;5030445;28;20806;-72
2022/03/31 06:38:02;;;;;;;19.93;14.97;;;7.10;99.90;;;;;;5028523;28;20529;-72
2022/03/31 06:43:49;;;;;;;23.10;16.53;;;7.10;99.90;;;;;;5029685;28;20994;-72
2022/03/31 06:46:35;;;;;;;23.47;17.17;;;7.30;99.90;;;;;;5026166;28;20664;-72
2022/03/31 06:49:23;;;;;;;21.10;15.83;;;7.40;99.90;;;;;;5033073;28;20433;-72
2022/03/31 06:52:08;;;;;;;21.20;15.90;;;7.50;99.90;;;;;;5030316;28;20583;-72
2022/03/31 06:54:54;;;;;;;23.43;16.90;;;7.60;99.90;;;;;;5023171;28;20419;-72
2022/03/31 06:57:41;;;;;;;23.30;14.37;;;7.70;99.90;;;;;;5028906;28;20543;-72
2022/03/31 07:00:26;;;;;;;24.63;15.40;;;7.60;99.90;;;;;;5031016;28;20786;-72
2022/03/31 07:03:12;;;;;;;19.37;14.80;;;7.70;99.90;;;;;;5029668;28;20496;-72
2022/03/31 07:05:57;;;;;;;21.60;14.57;;;7.70;99.90;;;;;;5024735;28;20438;-72
2022/03/31 07:08:43;;;;;;;20.13;15.53;;;7.90;99.90;;;;;;5029903;28;20787;-73
2022/03/31 07:11:29;;;;;;;22.53;15.20;;;8.00;99.90;;;;;;5031143;28;20399;-72
2022/03/31 07:14:16;;;;;;;23.60;15.97;;;8.10;99.90;;;;;;5027514;28;20425;-72
2022/03/31 07:17:02;;;;;;;20.40;14.70;;;8.10;99.90;;;;;;5031601;28;20450;-72
2022/03/31 07:19:48;;;;;;;20.07;14.90;;;8.20;99.90;;;;;;5030871;28;20418;-72
2022/03/31 07:22:34;;;;;;;19.47;14.53;;;7.80;99.90;;;;;;5026537;28;20501;-72
2022/03/31 07:25:20;;;;;;;23.40;16.10;;;7.70;99.90;;;;;;5024501;28;20519;-72
2022/03/31 07:28:06;;;;;;;20.63;15.57;;;7.70;99.90;;;;;;5029669;28;20493;-72
2022/03/31 07:30:53;;;;;;;22.80;16.20;;;7.90;99.90;;;;;;5027606;28;20411;-72
2022/03/31 07:33:39;;;;;;;20.50;15.30;;;8.00;99.90;;;;;;5027361;28;20443;-72
2022/03/31 07:36:25;;;;;;;21.67;14.90;;;8.10;99.90;;;;;;5029675;28;20480;-72
2022/03/31 07:39:10;;;;;;;22.97;15.20;;;8.10;99.90;;;;;;5032992;28;20548;-73
2022/03/31 07:41:56;;;;;;;21.53;14.13;;;8.10;99.90;;;;;;5029898;28;20553;-73
2022/03/31 07:44:42;;;;;;;18.57;13.40;;;8.00;99.90;;;;;;5023974;28;20428;-73
2022/03/31 07:47:29;;;;;;;18.77;13.53;;;8.00;99.90;;;;;;5030243;28;20447;-72
2022/03/31 07:50:17;;;;;;;22.13;15.53;;;8.10;99.90;;;;;;5031384;28;20437;-72
2022/03/31 07:53:03;;;;;;;22.70;16.00;;;8.20;99.90;;;;;;5027275;28;20451;-73
2022/03/31 07:55:48;;;;;;;22.37;16.10;;;8.00;99.90;;;;;;5030216;28;20408;-72
2022/03/31 07:58:35;;;;;;;19.83;15.20;;;8.00;99.90;;;;;;5031379;28;20440;-72
2022/03/31 08:01:21;;;;;;;21.63;15.00;;;8.00;99.90;;;;;;5030751;28;20432;-72
2022/03/31 08:04:08;;;;;;;21.57;15.90;;;8.00;99.90;;;;;;5024097;28;20466;-72
2022/03/31 08:06:54;;;;;;;24.50;15.80;;;8.00;99.90;;;;;;5025427;28;21253;-73
2022/03/31 08:09:39;;;;;;;18.00;14.47;;;7.90;99.90;;;;;;5022078;28;20491;-72
2022/03/31 08:12:25;;;;;;;23.83;17.07;;;7.90;99.90;;;;;;5021640;28;21212;-72
2022/03/31 08:15:14;;;;;;;20.80;15.60;;;7.80;99.90;;;;;;5023998;28;20774;-72
2022/03/31 08:17:59;;;;;;;21.20;15.63;;;7.90;99.90;;;;;;5022932;28;20503;-72
2022/03/31 08:20:46;;;;;;;23.20;16.10;;;7.80;99.90;;;;;;5023534;28;20456;-72
2022/03/31 08:23:33;;;;;;;24.07;16.83;;;7.80;99.90;;;;;;5027094;28;20843;-72
2022/03/31 08:26:18;;;;;;;19.50;14.93;;;7.80;99.90;;;;;;5021938;28;20474;-72
2022/03/31 08:29:03;;;;;;;22.37;14.70;;;7.70;99.90;;;;;;5023881;28;20456;-72
2022/03/31 08:31:49;;;;;;;22.93;15.90;;;7.80;99.90;;;;;;5026047;28;20445;-72
2022/03/31 08:34:35;;;;;;;22.10;14.80;;;7.90;99.90;;;;;;5022272;28;20595;-72
2022/03/31 08:37:23;;;;;;;24.27;16.47;;;7.90;99.90;;;;;;5030603;28;21168;-72
2022/03/31 08:40:12;;;;;;;23.30;17.00;;;7.90;99.90;;;;;;5037374;28;20424;-72
2022/03/31 08:42:58;;;;;;;22.37;15.30;;;7.90;99.90;;;;;;5027400;28;20946;-72
2022/03/31 08:45:46;;;;;;;21.93;16.10;;;7.80;99.90;;;;;;5030214;28;20407;-72
2022/03/31 08:48:32;;;;;;;22.00;15.63;;;7.80;99.90;;;;;;5031239;28;20467;-72
2022/03/31 08:51:17;;;;;;;21.00;15.10;;;7.90;99.90;;;;;;5032064;28;20390;-72
2022/03/31 08:54:04;;;;;;;24.97;17.40;;;8.00;99.90;;;;;;5028569;28;21051;-72
2022/03/31 08:56:50;;;;;;;21.70;15.17;;;8.20;99.90;;;;;;5032078;28;20454;-72
2022/03/31 08:59:36;;;;;;;22.63;15.27;;;8.30;99.90;;;;;;5033083;28;20429;-72
2022/03/31 09:02:27;;;;;;;20.13;15.07;;;8.40;99.90;;;;;;5029407;28;20472;-72
2022/03/31 09:05:12;;;;;;;20.43;14.80;;;8.40;99.90;;;;;;5029465;28;20457;-72
2022/03/31 09:08:00;;;;;;;23.00;15.13;;;8.40;99.90;;;;;;5026284;28;20493;-72
2022/03/31 09:10:49;;;;;;;20.80;14.47;;;8.50;99.90;;;;;;5029189;28;20393;-72
2022/03/31 09:13:40;;;;;;;18.90;14.60;;;8.40;99.90;;;;;;5025741;28;21064;-72
2022/03/31 09:16:34;;;;;;;22.23;14.27;;;8.50;99.90;;;;;;5026234;28;20415;-72
2022/03/31 09:19:21;;;;;;;21.27;14.80;;;8.60;99.90;;;;;;5028303;28;20531;-72
2022/03/31 09:22:07;;;;;;;23.80;15.70;;;8.50;99.90;;;;;;5025619;28;20449;-73
2022/03/31 09:25:01;;;;;;;20.87;15.57;;;8.50;99.90;;;;;;5025813;28;20505;-72
2022/03/31 09:27:48;;;;;;;21.67;14.93;;;8.50;99.90;;;;;;4985842;28;1189805;-72
2022/03/31 09:30:33;;;;;;;21.93;14.30;;;8.50;99.90;;;;;;5026324;28;20265;-72
2022/03/31 09:33:30;;;;;;;22.27;15.70;;;8.50;99.90;;;;;;5024857;28;20923;-72
2022/03/31 09:36:17;;;;;;;17.33;13.70;;;8.50;99.90;;;;;;5029864;28;20956;-72
2022/03/31 09:39:07;;;;;;;18.80;13.93;;;8.60;99.90;;;;;;5032053;28;20416;-72
2022/03/31 09:41:58;;;;;;;19.77;14.23;;;8.70;99.90;;;;;;5031075;28;21021;-72
2022/03/31 09:44:56;;;;;;;18.53;13.57;;;8.80;99.90;;;;;;5028217;28;21037;-72
2022/03/31 09:47:47;;;;;;;21.67;14.40;;;8.80;99.90;;;;;;5028608;28;20842;-72
2022/03/31 09:50:36;;;;;;;23.93;14.87;;;8.90;99.90;;;;;;5036991;23;20512;-86
2022/03/31 09:53:22;;;;;;;21.80;15.00;;;8.90;99.90;;;;;;5031570;28;20565;-83
2022/03/31 09:56:08;;;;;;;25.93;15.20;;;9.00;99.90;;;;;;5036293;28;20502;-83
2022/03/31 09:59:00;;;;;;;21.43;14.43;;;9.10;99.90;;;;;;5034943;28;20512;-84
2022/03/31 10:01:47;;;;;;;19.73;14.90;;;9.00;99.90;;;;;;5034369;28;20493;-84
2022/03/31 10:04:34;;;;;;;21.43;15.27;;;9.00;99.90;;;;;;5031974;28;20475;-83
2022/03/31 10:07:19;;;;;;;21.00;14.10;;;9.10;99.90;;;;;;5034293;28;20478;-83
2022/03/31 10:10:06;;;;;;;21.00;13.80;;;9.20;99.90;;;;;;5037689;28;20454;-83
2022/03/31 10:12:59;;;;;;;21.00;13.40;;;9.30;99.90;;;;;;5032463;28;20475;-83
2022/03/31 10:15:46;;;;;;;17.53;13.07;;;9.40;99.90;;;;;;5028659;28;20533;-83
2022/03/31 10:18:33;;;;;;;19.87;13.90;;;9.20;99.90;;;;;;5035805;28;20549;-85
2022/03/31 10:21:27;;;;;;;22.53;14.23;;;9.30;99.90;;;;;;5030745;28;20456;-84
2022/03/31 10:27:28;;;;;;;18.20;12.70;;;9.50;99.90;;;;;;5036959;28;20519;-85
2022/03/31 10:30:16;;;;;;;18.70;12.47;;;9.60;99.90;;;;;;5032212;28;20441;-84
2022/03/31 10:33:03;;;;;;;21.57;12.43;;;9.70;99.90;;;;;;5031136;28;20429;-84
2022/03/31 10:36:03;;;;;;;17.83;12.67;;;9.80;99.90;;;;;;5032367;28;20976;-85
2022/03/31 10:38:56;;;;;;;18.73;11.57;;;9.90;99.90;;;;;;5031458;28;20464;-85
2022/03/31 10:41:44;;;;;;;18.10;13.13;;;9.90;99.90;;;;;;5030364;28;20449;-85
2022/03/31 10:44:30;;;;;;;19.03;12.37;;;10.00;99.90;;;;;;5028976;28;20501;-84
2022/03/31 10:47:15;;;;;;;16.70;11.70;;;10.10;99.90;;;;;;5024638;28;20458;-84
2022/03/31 10:50:01;;;;;;;18.03;11.40;;;10.20;99.90;;;;;;5027695;28;20435;-84
2022/03/31 10:52:59;;;;;;;17.17;11.90;;;10.10;99.90;;;;;;5027732;28;20400;-83
2022/03/31 10:55:49;;;;;;;16.20;10.70;;;9.90;99.90;;;;;;5022795;28;20491;-85
2022/03/31 10:58:35;;;;;;;15.20;11.00;;;9.90;99.90;;;;;;5029132;28;20972;-84
2022/03/31 11:01:23;;;;;;;14.80;11.10;;;9.90;99.90;;;;;;5023189;28;20432;-84
2022/03/31 11:04:11;;;;;;;15.50;10.90;;;9.90;99.90;;;;;;5030545;28;20469;-85
2022/03/31 11:06:57;;;;;;;15.70;10.90;;;9.80;99.90;;;;;;5029164;28;20561;-85
2022/03/31 11:09:45;;;;;;;17.57;10.77;;;9.80;99.90;;;;;;5030798;28;20436;-86
2022/03/31 11:12:33;;;;;;;20.97;11.87;;;9.90;99.90;;;;;;5026811;28;20433;-84
2022/03/31 11:15:19;;;;;;;16.37;12.10;;;9.90;99.90;;;;;;5025725;28;20559;-85
2022/03/31 11:18:05;;;;;;;16.70;11.80;;;9.90;99.90;;;;;;5033176;28;20442;-85
2022/03/31 11:20:56;;;;;;;14.43;11.17;;;9.90;99.90;;;;;;5028673;28;20466;-85
2022/03/31 11:23:47;;;;;;;16.17;11.80;;;10.00;99.90;;;;;;5035031;28;20448;-86
2022/03/31 11:26:40;;;;;;;16.90;10.90;;;10.00;99.90;;;;;;5037697;28;20457;-84
2022/03/31 11:29:29;;;;;;;16.53;12.10;;;10.00;99.90;;;;;;5031907;28;20592;-86
2022/03/31 11:32:15;;;;;;;16.90;10.80;;;10.00;99.90;;;;;;5034966;28;20419;-84
2022/03/31 11:35:00;;;;;;;17.47;11.03;;;10.00;99.90;;;;;;5029588;28;20556;-84
2022/03/31 11:37:48;;;;;;;18.87;13.20;;;9.90;99.90;;;;;;5035571;28;20475;-86
2022/03/31 11:40:36;;;;;;;18.47;12.30;;;10.00;99.90;;;;;;5030034;28;20465;-85
2022/03/31 11:43:24;;;;;;;19.40;12.50;;;9.90;99.90;;;;;;5027581;28;20450;-85
2022/03/31 11:46:09;;;;;;;18.03;13.17;;;9.90;99.90;;;;;;5029192;28;20467;-85
2022/03/31 11:48:55;;;;;;;19.17;13.70;;;9.70;99.90;;;;;;5025126;28;20440;-83
2022/03/31 11:51:40;;;;;;;19.03;12.00;;;9.70;99.90;;;;;;5022485;28;20930;-85
2022/03/31 11:54:28;;;;;;;17.70;11.90;;;9.80;99.90;;;;;;5025283;28;20435;-84
2022/03/31 11:57:14;;;;;;;18.10;12.87;;;9.80;99.90;;;;;;5029178;28;20465;-83
2022/03/31 12:00:12;;;;;;;19.63;13.20;;;9.80;99.90;;;;;;5025778;28;20419;-84
2022/03/31 12:02:59;;;;;;;16.07;11.37;;;9.90;99.90;;;;;;5029439;28;20469;-85
2022/03/31 12:05:54;;;;;;;20.67;14.50;;;9.90;99.90;;;;;;5033482;28;20613;-84
2022/03/31 12:08:40;;;;;;;18.47;13.37;;;9.90;99.90;;;;;;5032856;28;20480;-85
2022/03/31 12:11:29;;;;;;;18.47;13.50;;;9.80;99.90;;;;;;5030320;28;20453;-85
2022/03/31 12:14:15;;;;;;;20.87;14.00;;;9.90;99.90;;;;;;5028139;28;20423;-84
2022/03/31 12:17:02;;;;;;;22.10;14.80;;;9.90;99.90;;;;;;5031804;28;20812;-85
2022/03/31 12:19:47;;;;;;;22.20;14.80;;;9.90;99.90;;;;;;5028244;28;20416;-85
2022/03/31 12:22:34;;;;;;;21.30;14.60;;;9.80;99.90;;;;;;5033833;28;20445;-84
2022/03/31 12:25:34;;;;;;;27.00;15.20;;;9.80;99.90;;;;;;5031130;28;20431;-85
2022/03/31 12:28:23;;;;;;;21.77;15.40;;;9.80;99.90;;;;;;5032501;28;20464;-85
2022/03/31 12:31:20;;;;;;;21.57;15.57;;;9.80;99.90;;;;;;5025405;28;20442;-84
2022/03/31 12:34:12;;;;;;;21.90;14.40;;;9.70;99.90;;;;;;5034906;28;20512;-85
2022/03/31 12:36:58;;;;;;;23.40;15.43;;;9.70;99.90;;;;;;5031674;28;20477;-85
2022/03/31 12:39:44;;;;;;;21.97;15.80;;;9.70;99.90;;;;;;5027844;28;20478;-85
2022/03/31 12:42:30;;;;;;;21.60;14.60;;;9.70;99.90;;;;;;5035354;28;20448;-85
2022/03/31 12:45:17;;;;;;;25.30;16.47;;;9.60;99.90;;;;;;5035094;28;20571;-85
2022/03/31 12:48:08;;;;;;;27.73;17.07;;;9.60;99.90;;;;;;5033767;28;20494;-85
2022/03/31 12:51:02;;;;;;;42.33;16.40;;;9.50;99.90;;;;;;5028118;28;20600;-85
2022/03/31 12:53:48;;;;;;;25.30;15.10;;;9.50;99.90;;;;;;5033934;28;20493;-84
2022/03/31 12:56:34;;;;;;;26.03;15.87;;;9.50;99.90;;;;;;5034564;28;20468;-85
2022/03/31 12:59:21;;;;;;;26.90;16.30;;;9.60;99.90;;;;;;5026437;28;20499;-85
2022/03/31 13:02:08;;;;;;;27.60;17.20;;;9.50;99.90;;;;;;5029599;28;20409;-85
2022/03/31 13:04:53;;;;;;;23.10;16.10;;;9.60;99.90;;;;;;5030699;28;20568;-84
2022/03/31 13:07:43;;;;;;;26.03;17.70;;;9.50;99.90;;;;;;5031951;28;20464;-85
2022/03/31 13:10:29;;;;;;;26.13;16.60;;;9.50;99.90;;;;;;5027514;28;20417;-85
2022/03/31 13:13:15;;;;;;;25.90;16.30;;;9.50;99.90;;;;;;5031984;28;20784;-84
2022/03/31 13:16:00;;;;;;;24.23;16.13;;;9.50;99.90;;;;;;5032155;28;20469;-84
2022/03/31 13:18:46;;;;;;;31.07;19.80;;;9.50;99.90;;;;;;5031260;28;20419;-83
2022/03/31 13:21:32;;;;;;;28.67;19.23;;;9.60;99.90;;;;;;5033126;28;20424;-83
2022/03/31 13:24:19;;;;;;;26.13;16.60;;;9.60;99.90;;;;;;5033482;28;20539;-85
2022/03/31 13:27:06;;;;;;;26.27;16.53;;;9.60;99.90;;;;;;5033269;28;20481;-84
2022/03/31 13:29:53;;;;;;;27.27;18.57;;;9.60;99.90;;;;;;5031171;28;20435;-85
2022/03/31 13:32:39;;;;;;;24.60;18.40;;;9.70;99.90;;;;;;5033194;28;20420;-84
2022/03/31 13:35:25;;;;;;;28.57;18.47;;;9.60;99.90;;;;;;5034186;28;20551;-84
2022/03/31 13:38:12;;;;;;;30.53;18.53;;;9.60;99.90;;;;;;5032465;28;20427;-84
2022/03/31 13:40:59;;;;;;;27.47;18.90;;;9.50;99.90;;;;;;5027322;28;20460;-85
2022/03/31 13:43:45;;;;;;;28.00;18.83;;;9.50;99.90;;;;;;5031103;28;20424;-83
2022/03/31 13:46:31;;;;;;;25.27;17.20;;;9.50;99.90;;;;;;5030202;28;20462;-85
2022/03/31 13:49:17;;;;;;;26.33;18.20;;;9.40;99.90;;;;;;5028406;28;20570;-83
2022/03/31 13:52:03;;;;;;;26.37;19.00;;;9.40;99.90;;;;;;5032766;28;20428;-85
2022/03/31 13:54:49;;;;;;;29.33;19.33;;;9.40;99.90;;;;;;5032942;28;20470;-85
2022/03/31 14:03:44;;;;;;;26.93;19.70;;;9.50;99.90;;;;;;5033149;28;20447;-86
2022/03/31 14:06:30;;;;;;;30.40;20.80;;;9.40;99.90;;;;;;5032661;28;20477;-84
2022/03/31 14:09:16;;;;;;;28.27;20.50;;;9.40;99.90;;;;;;5028912;28;20983;-82
2022/03/31 14:12:02;;;;;;;27.80;20.53;;;9.40;99.90;;;;;;5034195;28;20429;-86
2022/03/31 14:14:49;;;;;;;32.47;20.73;;;9.40;99.90;;;;;;5035655;28;20469;-83
2022/03/31 14:17:35;;;;;;;28.67;19.70;;;9.40;99.90;;;;;;5031290;28;20423;-85
2022/03/31 14:20:21;;;;;;;27.43;18.77;;;9.40;99.90;;;;;;5031484;28;20499;-85
2022/03/31 14:23:07;;;;;;;30.33;20.10;;;9.40;99.90;;;;;;5033161;28;20505;-85
2022/03/31 14:25:58;;;;;;;26.50;19.13;;;9.40;99.90;;;;;;5029431;28;20443;-84
2022/03/31 14:28:45;;;;;;;23.93;17.50;;;9.40;99.90;;;;;;5030177;28;20613;-83
2022/03/31 14:31:33;;;;;;;30.67;19.57;;;9.40;99.90;;;;;;5030128;28;20784;-83